Accueil
METAR-TAF:

METAR-TAF

Aéroports :

Wake Island, États-Unis

latitude: 19-17N, longitude: 166-39E, altitude: 4 m

Observation

Le bulletin a été fait il y a 1 heure et 7 minutes, à 05:58 UTC
Vent 14 kt de est/nord-est
Température 30°C
Humidité 75%
Pression 1014 hPa
Visibilité 10 km ou plus
Ciel clair

METAR: PWAK 270558Z AUTO 06014KT 9999 CLR 30/25 A2993 RMK AO2 SLP142 55007

Heure: 19:05 (07:05 UTC)

Prévision

Prévision valable du 27 à 06 UTC au 28 à 12 UTC
Vent 14 kt de est
Visibilité 10 km ou plus
Nuages épars à une hauteur de 2000 ft
averses à proximité

TAF: PWAK 2706/2812 08014KT 9999 VCSH SCT020 QNH2990INS TX31/2804Z TN25/27117Z

Observations et prévisions météorologiques de plus de 4000 aéroports (messages METAR et TAF).

Les stations disponibles sont représentées par des disques jaunes et rouges sur la carte.

Passer la souris dessus pour voir le nom de la station.

Cliquer dessus pour voir les observations et prévisions météorologiques.

Pour changer de carte: cliquez sur les boutons verts avec une croix noire pour zoomer, sur le bouton vert avec un tiret pour effectuer un zoom arrière, ou sur les flèches vertes pour les cartes adjacentes.


METAR-TAF: